Airfield :







YOU CAN JOIN US ON...

 
LOGIN :

Register | Disclaimer

   EN    FR    IT 

 









Legend :    VFR   Marginal VFR   IFR   Intensive IFR   Very Intensive IFR
Visi :
Ceiling :
>= 8 km
>= 3000ft
5 to 8 km
1000 to 3000 ft
1500m to 5 km
500 to 1000 ft
800 to 1500m
200 to 500 ft
< 800m
< 200 ft
Symbols :   Thunderstorms  Fog  Heavy snow  Heavy precipitations  Wind > 20 kt






- Airport Elevation : 76 ft
- IATA code : PWM


KPWM - Portland International Jetport

CURRENT METAR :
  • 250351Z 00000KT 10SM CLR 13/12 A3042 RMK AO2 SLP302 LAST T01330117

EXPIRED METARs :
  • 250251Z 00000KT 10SM CLR 14/12 A3043 RMK AO2 SLP303 T01390117 52011
  • 250151Z 20004KT 10SM CLR 15/12 A3043 RMK AO2 SLP303 T01500122

TAF KPWM
Valid from the 25 at 00:00 until the 26 at 00:00 UTC


242333Z 2500/2524 16005KT P6SM FEW250
FM251000 VRB03KT P6SM -SHRA OVC025
FM251400 09007KT P6SM OVC007
KZBW FIR / North America



MET'MAP, your aeronautical weather chart ! - Copyright ORBIFLY December 2007 - Disclaimer

ORBIFLY MET'MAP TEAM :

Programming & Development : Alexandra Zaïnal
Concept & original design : Baudouin d'Aumeries
Assistance for programming : Marc-Olivier Méhu
Technical & hardware support : Manuel Goepfert

Contact : metmap@orbifly.com




SOURCES & CREDITS :

   NOAA